Terminal Aerodrome Forecast
Issued by NWS Tulsa, OK

Home | Current Version | Previous Version | Text Only | Print | Product List | Glossary On
Versions: 1 2 3 4 5 6 7 8 9 10 11 12 13 14 15 16 17 18 19 20 21 22 23 24 25
721
FTUS44 KTSA 221721
TAFFSM
TAF
KFSM 221721Z 2218/2318 27007KT 2SM -RA BKN008 OVC035
      TEMPO 2218/2221 6SM -SHRA BR BKN035
     FM222200 30015G25KT P6SM VCSH OVC025
     FM230200 31012KT P6SM BKN050
     FM230600 30007KT P6SM SKC=

USA.gov is the U.S. government's official web portal to all federal, state and local government web resources and services.